Terminal Aerodrome Forecast
Issued by NWS

Home | Current Version | Previous Version | Text Only | Print | Product List | Glossary On
Versions: 1 2 3 4 5 6 7 8 9 10 11 12 13 14 15
000
FTUS43 KICT 291700
TAFCNU
TAF
KCNU 291720Z 2918/3018 20011KT P6SM SCT035 SCT070
     FM292000 21013KT P6SM VCSH SCT050
     FM300600 22006KT P6SM SCT070=

USA.gov is the U.S. government's official web portal to all federal, state and local government web resources and services.